Terminal Aerodrome Forecast
Issued by NWS Albany, NY

Home | Current Version | Previous Version | Text Only | Print | Product List | Glossary On
Versions: 1 2 3 4 5 6 7 8 9 10 11 12 13 14 15 16
000
FTUS41 KALY 301403 AAA
TAFPOU
TAF AMD
KPOU 301403Z 3014/3112 22006KT P6SM SCT025 BKN035
      TEMPO 3014/3016 BKN025 OVC035
     FM301900 23006KT 3SM SHRA BR VCTS SCT015 OVC040CB
     FM302200 VRB03KT P6SM SCT045
     FM310900 VRB02KT 3SM BR SCT002=

USA.gov is the U.S. government's official web portal to all federal, state and local government web resources and services.